Terminal Aerodrome Forecast
Issued by NWS Pueblo, CO

Home | Current Version | Previous Version | Text Only | Print | Product List | Glossary On
Versions: 1 2 3 4 5 6 7 8 9 10 11 12 13 14 15 16 17 18 19 20 21 22 23 24 25 26 27 28 29 30 31 32 33 34 35 36 37 38
000
FTUS45 KPUB 200522
TAFPUB
TAF
KPUB 200522Z 2006/2106 VRB06KT P6SM SCT150 BKN200
     FM201700 22008KT P6SM SCT120 SCT200
     FM202100 24010KT P6SM VCTS SCT090CB BKN150
     FM210200 33008KT P6SM SCT130 BKN200=

USA.gov is the U.S. government's official web portal to all federal, state and local government web resources and services.